Time;durP1;ratioP1;P1;durP2;ratioP2;P2;SDS_P1;SDS_P2;PMS_P1;PMS_P2;Temp;Humidity;BMP_temperature;BMP_pressure;BME280_temperature;BME280_humidity;BME280_pressure;Samples;Min_cycle;Max_cycle;Signal;HPM_P1;HPM_P2
2023/07/04 00:01:04;;;;;;;5.60;3.80;;;;;;;15.14;79.09;98811.14;105237;1258;73849;-23
2023/07/04 00:03:31;;;;;;;6.40;2.70;;;;;;;14.94;79.47;98814.56;105364;1253;73112;-23
2023/07/04 00:05:59;;;;;;;4.90;2.60;;;;;;;15.33;79.41;98813.10;105667;1254;72722;-24
2023/07/04 00:08:29;;;;;;;7.20;4.20;;;;;;;15.81;78.08;98809.85;105671;1254;61210;-23
2023/07/04 00:10:57;;;;;;;9.60;4.10;;;;;;;15.83;77.38;98809.81;105708;1257;61173;-23
2023/07/04 00:13:26;;;;;;;5.30;3.60;;;;;;;15.64;77.61;98810.90;105842;1254;73988;-23
2023/07/04 00:15:54;;;;;;;5.70;3.80;;;;;;;15.39;77.78;98809.35;105721;1258;74354;-23
2023/07/04 00:18:23;;;;;;;6.20;3.70;;;;;;;15.13;78.48;98807.73;105738;1256;72629;-23
2023/07/04 00:20:55;;;;;;;15.20;3.60;;;;;;;14.90;78.81;98805.70;105739;1251;61596;-23
2023/07/04 00:23:24;;;;;;;11.30;3.70;;;;;;;15.28;79.56;98802.97;105646;1254;61075;-23
2023/07/04 00:25:53;;;;;;;8.90;3.50;;;;;;;15.73;78.11;98804.73;105258;1253;73926;-23
2023/07/04 00:28:21;;;;;;;16.70;4.50;;;;;;;15.74;77.29;98808.44;105796;1257;74360;-23
2023/07/04 00:30:51;;;;;;;14.70;4.20;;;;;;;15.55;77.32;98809.23;105687;1254;72626;-23
2023/07/04 00:33:24;;;;;;;12.80;4.90;;;;;;;15.30;77.82;98808.52;105527;1251;61167;-23
2023/07/04 00:36:05;;;;;;;22.00;5.10;;;;;;;15.05;78.45;98805.21;105621;1258;61110;-23
2023/07/04 00:38:33;;;;;;;8.90;2.70;;;;;;;14.83;79.24;98800.92;105488;1254;74742;-23
2023/07/04 00:41:02;;;;;;;8.20;3.40;;;;;;;15.28;79.20;98800.14;105488;1253;74267;-23
2023/07/04 00:44:01;;;;;;;15.50;3.70;;;;;;;15.77;77.66;98798.02;105644;1259;72676;-24
2023/07/04 00:46:40;;;;;;;8.90;4.70;;;;;;;15.75;76.79;98797.69;105586;1253;61748;-23
2023/07/04 00:49:23;;;;;;;10.00;4.20;;;;;;;15.51;76.87;98796.93;105620;1260;61137;-24
2023/07/04 00:52:01;;;;;;;13.20;4.00;;;;;;;15.23;77.65;98799.15;105657;1257;74266;-23
2023/07/04 00:54:30;;;;;;;12.40;4.50;;;;;;;14.97;78.18;98798.64;105563;1257;74299;-23
2023/07/04 00:57:02;;;;;;;9.80;2.90;;;;;;;14.78;79.07;98801.17;105713;1253;72740;-24
2023/07/04 00:59:38;;;;;;;9.70;3.70;;;;;;;15.19;79.27;98804.79;105468;1251;61103;-24
2023/07/04 01:02:06;;;;;;;12.30;3.90;;;;;;;15.67;77.81;98809.60;105696;1253;61144;-24
2023/07/04 01:04:33;;;;;;;10.10;4.00;;;;;;;15.67;77.03;98806.91;105960;1254;73620;-24
2023/07/04 01:07:22;;;;;;;21.30;5.00;;;;;;;15.49;77.52;98802.70;105615;1254;74419;-24
2023/07/04 01:09:55;;;;;;;16.60;5.90;;;;;;;15.20;77.85;98805.05;105632;1252;72639;-24
2023/07/04 01:12:29;;;;;;;21.60;5.70;;;;;;;14.91;78.79;98812.06;105497;1253;61081;-24
2023/07/04 01:14:59;;;;;;;12.80;2.90;;;;;;;14.72;79.56;98811.70;105471;1259;61106;-24
2023/07/04 01:17:29;;;;;;;10.30;2.90;;;;;;;15.17;79.60;98813.76;105436;1255;73898;-24
2023/07/04 01:19:58;;;;;;;10.40;4.00;;;;;;;15.63;77.93;98810.85;105643;1259;74350;-24
2023/07/04 01:22:33;;;;;;;15.70;5.50;;;;;;;15.63;76.84;98810.88;105957;1254;73072;-24
2023/07/04 01:25:14;;;;;;;18.60;4.00;;;;;;;15.43;77.41;98816.60;105686;1253;61244;-24
2023/07/04 01:27:42;;;;;;;12.00;4.30;;;;;;;15.17;77.98;98812.20;105739;1253;61148;-24
2023/07/04 01:30:10;;;;;;;21.90;5.20;;;;;;;14.92;78.19;98806.85;105715;1258;73841;-24
2023/07/04 01:32:41;;;;;;;10.80;3.10;;;;;;;14.71;78.88;98805.88;105712;1259;74839;-23
2023/07/04 01:35:12;;;;;;;8.00;2.80;;;;;;;15.08;79.22;98810.10;105329;1253;72536;-24
2023/07/04 01:37:40;;;;;;;13.70;4.00;;;;;;;15.53;78.10;98807.19;105636;1254;61058;-24
2023/07/04 01:40:09;;;;;;;16.20;4.20;;;;;;;15.52;76.98;98805.75;105785;1257;61250;-24
2023/07/04 01:42:36;;;;;;;16.50;4.10;;;;;;;15.30;77.13;98805.23;105719;1253;73691;-24
2023/07/04 01:45:05;;;;;;;14.40;4.10;;;;;;;15.00;77.80;98804.81;105498;1253;73243;-23
2023/07/04 01:47:33;;;;;;;16.30;4.90;;;;;;;14.72;78.61;98804.34;105471;1253;71420;-24
2023/07/04 01:50:01;;;;;;;8.40;2.60;;;;;;;14.49;79.28;98802.73;105469;1253;61737;-24
2023/07/04 01:52:28;;;;;;;7.90;3.00;;;;;;;14.82;79.81;98807.14;105639;1259;61171;-24
2023/07/04 01:54:55;;;;;;;11.70;4.40;;;;;;;15.29;78.15;98814.48;105592;1253;73807;-24
2023/07/04 01:57:23;;;;;;;12.50;4.30;;;;;;;15.32;77.44;98811.89;105575;1258;74390;-24
2023/07/04 01:59:49;;;;;;;11.60;4.30;;;;;;;15.13;77.79;98812.73;105610;1254;72717;-24
2023/07/04 02:02:17;;;;;;;10.20;4.40;;;;;;;14.87;78.28;98815.95;105872;1251;60975;-24
2023/07/04 02:04:44;;;;;;;13.70;4.60;;;;;;;14.61;78.78;98815.06;105661;1256;61153;-24
2023/07/04 02:07:11;;;;;;;11.70;2.90;;;;;;;14.42;79.60;98816.14;105782;1253;73863;-25
2023/07/04 02:09:39;;;;;;;11.40;3.10;;;;;;;14.78;79.63;98820.29;105803;1253;74299;-24
2023/07/04 02:12:06;;;;;;;19.00;3.40;;;;;;;15.26;78.33;98821.56;105912;1252;72434;-24
2023/07/04 02:14:34;;;;;;;9.00;4.20;;;;;;;15.33;77.31;98823.34;105929;1252;61695;-24
2023/07/04 02:17:01;;;;;;;9.70;3.80;;;;;;;15.18;77.83;98824.52;105573;1252;61154;-24
2023/07/04 02:19:28;;;;;;;13.00;4.10;;;;;;;14.96;78.11;98826.44;105847;1251;73811;-24
2023/07/04 02:21:55;;;;;;;9.90;4.40;;;;;;;14.73;78.79;98826.11;105549;1257;73269;-24
2023/07/04 02:24:23;;;;;;;16.20;3.60;;;;;;;14.56;79.31;98829.59;105527;1257;72460;-24
2023/07/04 02:26:50;;;;;;;5.50;2.60;;;;;;;14.95;79.68;98829.11;105776;1254;61140;-24
2023/07/04 02:29:20;;;;;;;8.60;4.20;;;;;;;15.49;77.37;98832.84;105692;1253;61094;-24
2023/07/04 02:31:47;;;;;;;8.90;3.40;;;;;;;15.67;76.24;98834.31;105676;1252;73782;-23
2023/07/04 02:34:14;;;;;;;6.50;3.70;;;;;;;15.65;75.98;98834.98;105604;1257;74398;-23
2023/07/04 02:36:42;;;;;;;8.50;5.00;;;;;;;15.51;76.06;98836.05;105758;1252;71455;-23
2023/07/04 02:39:09;;;;;;;12.00;4.40;;;;;;;15.31;76.55;98835.08;105546;1253;61736;-23
2023/07/04 02:41:36;;;;;;;11.70;3.70;;;;;;;15.11;77.40;98838.83;105841;1253;61031;-23
2023/07/04 02:44:03;;;;;;;8.80;3.20;;;;;;;15.61;77.43;98840.75;105915;1253;73632;-23
2023/07/04 02:46:31;;;;;;;8.70;4.20;;;;;;;16.43;75.65;98837.92;105703;1257;74214;-24
2023/07/04 02:49:00;;;;;;;15.80;3.90;;;;;;;16.84;73.54;98833.71;105573;1257;72354;-24
2023/07/04 02:51:27;;;;;;;14.50;4.00;;;;;;;16.97;72.60;98837.84;105767;1251;61099;-24
2023/07/04 02:53:54;;;;;;;10.10;4.20;;;;;;;17.01;72.02;98841.73;105756;1261;61157;-24
2023/07/04 02:56:22;;;;;;;12.10;4.30;;;;;;;17.06;71.55;98844.89;105825;1253;74365;-23
2023/07/04 02:58:49;;;;;;;8.30;4.70;;;;;;;17.11;71.10;98846.64;105520;1254;74863;-23
2023/07/04 03:01:16;;;;;;;7.10;3.60;;;;;;;17.19;70.95;98848.22;105706;1254;72623;-24
2023/07/04 03:03:43;;;;;;;7.00;3.90;;;;;;;17.86;70.49;98848.15;105707;1253;61080;-24
2023/07/04 03:06:11;;;;;;;7.50;3.40;;;;;;;18.61;68.09;98849.01;105534;1257;61093;-24
2023/07/04 03:08:37;;;;;;;7.00;3.90;;;;;;;18.96;66.80;98853.65;105469;1253;71982;-24
2023/07/04 03:11:05;;;;;;;8.80;4.70;;;;;;;19.13;65.89;98851.51;105568;1257;74258;-24
2023/07/04 03:13:33;;;;;;;7.10;4.20;;;;;;;19.18;65.46;98857.34;105842;1251;72705;-24
2023/07/04 03:16:01;;;;;;;8.10;4.20;;;;;;;19.20;65.14;98863.13;105708;1253;61207;-24
2023/07/04 03:18:28;;;;;;;13.50;5.00;;;;;;;19.27;65.37;98863.02;105834;1256;61142;-24
2023/07/04 03:20:55;;;;;;;14.00;4.90;;;;;;;19.34;65.22;98862.30;105646;1251;73582;-24
2023/07/04 03:23:24;;;;;;;12.10;4.20;;;;;;;19.43;64.95;98858.61;105928;1253;73229;-24
2023/07/04 03:25:51;;;;;;;9.80;4.00;;;;;;;19.49;64.78;98859.96;105679;1253;72922;-24
2023/07/04 03:28:18;;;;;;;5.70;2.90;;;;;;;19.61;64.69;98859.64;105871;1256;61920;-24
2023/07/04 03:30:46;;;;;;;5.10;2.90;;;;;;;20.28;64.49;98860.48;105834;1257;61153;-24
2023/07/04 03:33:13;;;;;;;9.10;3.60;;;;;;;21.07;62.21;98856.94;105903;1253;73867;-24
2023/07/04 03:35:40;;;;;;;9.80;3.90;;;;;;;21.43;60.85;98857.27;105684;1253;74138;-24
2023/07/04 03:38:26;;;;;;;7.70;4.10;;;;;;;21.50;60.15;98858.65;105760;1251;72473;-24
2023/07/04 03:40:53;;;;;;;7.40;4.20;;;;;;;21.45;59.84;98855.58;105650;1251;61143;-24
2023/07/04 03:43:22;;;;;;;6.90;3.80;;;;;;;21.35;60.28;98854.67;105677;1257;61179;-24
2023/07/04 03:45:49;;;;;;;7.30;4.70;;;;;;;21.22;60.30;98859.40;105730;1253;73633;-24
2023/07/04 03:48:16;;;;;;;10.60;4.70;;;;;;;21.16;60.14;98861.98;105751;1254;74225;-24
2023/07/04 03:50:44;;;;;;;7.00;4.20;;;;;;;21.12;61.17;98866.58;105738;1257;72445;-24
2023/07/04 03:53:12;;;;;;;8.70;4.90;;;;;;;21.22;60.84;98865.26;105578;1251;61046;-24
2023/07/04 03:55:39;;;;;;;11.60;4.50;;;;;;;21.19;61.22;98867.66;105661;1253;62922;-23
2023/07/04 03:58:06;;;;;;;7.70;4.50;;;;;;;21.10;61.31;98867.71;105403;1253;73869;-24
2023/07/04 04:00:34;;;;;;;11.50;4.60;;;;;;;20.91;61.94;98867.84;105646;1255;74216;-24
2023/07/04 04:03:01;;;;;;;9.90;4.50;;;;;;;20.68;62.58;98875.41;105928;1252;72660;-24
2023/07/04 04:05:29;;;;;;;11.60;4.50;;;;;;;20.43;63.09;98877.71;105762;1253;61149;-24
2023/07/04 04:07:56;;;;;;;6.40;4.50;;;;;;;20.22;63.70;98876.42;105681;1255;61186;-24
2023/07/04 04:10:23;;;;;;;10.80;4.60;;;;;;;20.02;64.09;98875.64;105886;1251;73790;-24
2023/07/04 04:12:50;;;;;;;9.30;4.60;;;;;;;19.82;64.76;98875.55;105735;1258;74141;-23
2023/07/04 04:15:18;;;;;;;8.50;3.90;;;;;;;19.65;65.59;98878.16;105960;1253;72669;-24
2023/07/04 04:17:45;;;;;;;5.30;2.90;;;;;;;19.56;66.39;98872.59;105878;1256;61069;-24
2023/07/04 04:20:12;;;;;;;4.50;3.20;;;;;;;19.99;66.71;98874.20;105882;1256;62946;-24
2023/07/04 04:22:44;;;;;;;7.10;3.40;;;;;;;20.60;64.72;98874.56;105567;1253;73800;-24
2023/07/04 04:25:13;;;;;;;7.90;4.00;;;;;;;20.75;63.86;98874.05;105813;1255;74323;-24
2023/07/04 04:27:41;;;;;;;8.20;4.00;;;;;;;20.70;63.17;98877.73;105737;1252;72526;-24
2023/07/04 04:30:09;;;;;;;6.00;4.00;;;;;;;20.62;63.67;98880.48;105932;1253;61116;-24
2023/07/04 04:32:37;;;;;;;9.10;3.80;;;;;;;20.48;63.74;98879.58;105866;1253;61572;-24
2023/07/04 04:35:06;;;;;;;9.20;4.10;;;;;;;20.36;64.34;98880.77;105539;1253;73772;-24
2023/07/04 04:37:34;;;;;;;7.80;4.10;;;;;;;20.25;65.42;98882.08;105577;1258;75002;-24
2023/07/04 04:40:01;;;;;;;7.90;3.90;;;;;;;20.16;65.89;98887.66;105710;1254;72820;-24
2023/07/04 04:42:29;;;;;;;8.60;5.20;;;;;;;20.08;66.22;98888.94;105638;1253;60984;-24
2023/07/04 04:44:56;;;;;;;10.00;7.00;;;;;;;19.98;65.88;98887.11;105698;1257;61148;-24
2023/07/04 04:47:24;;;;;;;12.30;6.10;;;;;;;19.90;66.32;98885.08;105890;1253;73824;-24
2023/07/04 04:49:51;;;;;;;9.50;5.00;;;;;;;19.88;66.82;98886.27;105940;1255;74414;-24
2023/07/04 04:52:19;;;;;;;8.20;3.20;;;;;;;19.73;65.29;98894.21;105641;1253;71305;-24
2023/07/04 04:54:47;;;;;;;5.30;3.70;;;;;;;19.78;65.08;98899.50;105649;1252;61163;-24
2023/07/04 04:57:15;;;;;;;6.20;3.20;;;;;;;20.23;64.82;98903.25;105791;1252;61177;-24
2023/07/04 04:59:43;;;;;;;6.10;3.90;;;;;;;20.42;63.97;98902.52;105705;1253;73690;-25
2023/07/04 05:02:10;;;;;;;5.90;3.40;;;;;;;20.38;63.66;98902.98;105927;1256;73468;-24
2023/07/04 05:04:37;;;;;;;6.40;3.90;;;;;;;20.23;64.25;98897.52;105595;1253;72629;-24
2023/07/04 05:07:05;;;;;;;6.90;3.70;;;;;;;20.15;64.69;98893.42;105632;1253;61242;-24
2023/07/04 05:09:32;;;;;;;7.20;4.20;;;;;;;20.05;65.35;98891.76;105512;1251;61195;-24
2023/07/04 05:12:00;;;;;;;7.10;4.30;;;;;;;19.95;65.95;98892.45;105709;1253;73628;-23
2023/07/04 05:14:28;;;;;;;8.70;4.70;;;;;;;19.88;66.31;98895.98;105646;1253;73374;-24
2023/07/04 05:16:55;;;;;;;5.40;4.50;;;;;;;19.86;66.92;98897.27;105841;1251;72682;-24
2023/07/04 05:19:22;;;;;;;6.10;4.10;;;;;;;19.89;67.78;98898.77;105853;1253;61051;-23
2023/07/04 05:21:49;;;;;;;5.80;3.40;;;;;;;19.92;67.87;98900.37;105863;1256;61136;-24
2023/07/04 05:24:15;;;;;;;8.10;3.60;;;;;;;20.58;67.52;98900.18;105804;1254;74193;-25
2023/07/04 05:26:43;;;;;;;7.00;3.70;;;;;;;21.25;64.65;98895.57;105723;1252;74307;-24
2023/07/04 05:29:09;;;;;;;6.40;3.80;;;;;;;21.51;63.60;98893.08;105809;1253;72474;-24
2023/07/04 05:31:36;;;;;;;10.20;4.60;;;;;;;21.54;62.20;98894.14;105616;1256;61141;-24
2023/07/04 05:34:04;;;;;;;7.70;3.90;;;;;;;21.43;62.18;98891.96;105755;1252;61125;-24
2023/07/04 05:36:33;;;;;;;6.30;4.70;;;;;;;21.29;61.43;98892.08;105786;1254;74588;-24
2023/07/04 05:39:02;;;;;;;7.10;4.20;;;;;;;21.25;62.15;98895.25;105869;1253;74234;-24
2023/07/04 05:41:31;;;;;;;9.40;4.60;;;;;;;21.21;61.91;98896.66;105647;1258;71226;-24
2023/07/04 05:43:58;;;;;;;9.00;4.80;;;;;;;21.25;61.79;98897.23;105720;1253;61165;-24
2023/07/04 05:46:25;;;;;;;8.10;4.50;;;;;;;21.35;61.71;98894.91;105703;1258;61107;-23
2023/07/04 05:48:53;;;;;;;7.90;4.20;;;;;;;21.46;60.52;98896.48;105580;1254;73883;-24
2023/07/04 05:51:20;;;;;;;5.10;3.50;;;;;;;21.60;60.40;98898.77;105840;1256;74874;-24
2023/07/04 05:53:48;;;;;;;7.80;4.00;;;;;;;21.66;60.19;98901.08;105883;1253;71746;-24
2023/07/04 05:56:27;;;;;;;7.70;4.20;;;;;;;21.75;60.26;98901.59;105756;1260;61199;-23
2023/07/04 05:58:56;;;;;;;9.80;4.50;;;;;;;21.80;59.99;98906.86;105700;1254;61094;-23
2023/07/04 06:01:37;;;;;;;8.10;3.80;;;;;;;21.79;59.79;98910.36;105726;1253;73788;-24
2023/07/04 06:04:06;;;;;;;5.60;3.50;;;;;;;21.65;60.05;98909.36;105569;1253;74455;-24
2023/07/04 06:06:36;;;;;;;7.20;3.40;;;;;;;21.48;59.60;98907.46;103651;1252;2548303;-24
2023/07/04 06:09:05;;;;;;;6.30;4.10;;;;;;;21.45;60.50;98906.46;105611;1252;61194;-24
2023/07/04 06:11:34;;;;;;;6.60;3.90;;;;;;;21.50;60.73;98913.61;105625;1257;61090;-24
2023/07/04 06:14:02;;;;;;;8.30;4.20;;;;;;;21.43;60.06;98911.52;105663;1253;73685;-23
2023/07/04 06:16:30;;;;;;;7.20;3.70;;;;;;;21.40;60.27;98913.31;105729;1253;73234;-24
2023/07/04 06:18:59;;;;;;;8.80;3.60;;;;;;;21.43;61.40;98913.76;105726;1256;73026;-24
2023/07/04 06:21:26;;;;;;;6.20;3.80;;;;;;;21.50;61.06;98918.84;105632;1253;61148;-24
2023/07/04 06:24:09;;;;;;;7.10;4.10;;;;;;;21.49;60.54;98918.55;105588;1254;61103;-23
2023/07/04 06:26:37;;;;;;;7.30;3.70;;;;;;;21.41;60.84;98920.96;105732;1253;73860;-24
2023/07/04 06:29:04;;;;;;;7.00;4.10;;;;;;;21.45;61.98;98919.70;105901;1253;74071;-24
2023/07/04 06:31:33;;;;;;;5.80;3.90;;;;;;;21.58;62.00;98916.45;105595;1255;72657;-24
2023/07/04 06:34:00;;;;;;;6.90;4.00;;;;;;;21.74;61.74;98913.94;105754;1253;61403;-24
2023/07/04 06:36:28;;;;;;;4.00;3.20;;;;;;;21.89;60.79;98917.47;105641;1257;61136;-24
2023/07/04 06:39:01;;;;;;;10.00;3.50;;;;;;;22.01;60.46;98919.23;105821;1253;72811;-24
2023/07/04 06:41:28;;;;;;;8.70;4.20;;;;;;;22.20;60.76;98920.09;105568;1253;75469;-22
2023/07/04 06:43:55;;;;;;;6.50;3.50;;;;;;;22.36;59.86;98920.73;105878;1252;72646;-23
2023/07/04 06:46:23;;;;;;;10.40;4.30;;;;;;;22.47;58.48;98921.13;105824;1253;61786;-23
2023/07/04 06:48:50;;;;;;;7.30;3.10;;;;;;;22.49;58.57;98926.08;105686;1261;61235;-23
2023/07/04 06:51:18;;;;;;;5.50;3.50;;;;;;;22.46;58.06;98924.36;105743;1253;73735;-24
2023/07/04 06:53:45;;;;;;;8.00;3.40;;;;;;;22.50;58.31;98923.30;105697;1257;74337;-24
2023/07/04 06:56:18;;;;;;;7.30;3.60;;;;;;;22.40;58.12;98925.52;105868;1253;72543;-23
2023/07/04 06:58:50;;;;;;;6.50;3.40;;;;;;;22.40;58.51;98927.52;105763;1251;61311;-24
2023/07/04 07:01:17;;;;;;;9.50;3.60;;;;;;;22.38;58.05;98930.73;105775;1253;61107;-23
2023/07/04 07:03:44;;;;;;;5.10;3.60;;;;;;;22.47;58.10;98927.02;105900;1253;73978;-24
2023/07/04 07:06:12;;;;;;;9.30;3.60;;;;;;;22.62;57.68;98929.02;105727;1253;73413;-23
2023/07/04 07:08:41;;;;;;;7.70;3.70;;;;;;;22.77;57.99;98927.61;105786;1253;71407;-24
2023/07/04 07:11:14;;;;;;;7.00;3.60;;;;;;;22.86;57.44;98927.46;105693;1253;61205;-24
2023/07/04 07:13:41;;;;;;;5.30;3.60;;;;;;;23.10;57.92;98932.69;105614;1261;61158;-24
2023/07/04 07:16:10;;;;;;;6.80;2.90;;;;;;;23.12;55.75;98933.17;105767;1253;73588;-24
2023/07/04 07:18:39;;;;;;;11.30;3.80;;;;;;;23.10;55.13;98932.29;105744;1253;74099;-24
2023/07/04 07:21:09;;;;;;;6.20;3.40;;;;;;;23.00;55.91;98927.79;105721;1253;72356;-24
2023/07/04 07:23:37;;;;;;;6.90;3.00;;;;;;;23.07;56.56;98927.80;105555;1258;61109;-24
2023/07/04 07:26:06;;;;;;;3.60;3.10;;;;;;;23.15;56.30;98923.48;105643;1253;61105;-24
2023/07/04 07:28:39;;;;;;;6.10;3.10;;;;;;;23.39;58.29;98923.38;105609;1254;73645;-24
2023/07/04 07:31:26;;;;;;;5.50;3.20;;;;;;;23.70;57.79;98919.72;105713;1258;74292;-24
2023/07/04 07:33:59;;;;;;;4.50;2.90;;;;;;;23.88;57.03;98921.27;105939;1256;71286;-24
2023/07/04 07:36:30;;;;;;;8.20;3.30;;;;;;;24.06;56.81;98915.53;105829;1251;61070;-24
2023/07/04 07:38:58;;;;;;;7.80;2.70;;;;;;;24.18;56.38;98918.46;105590;1253;61120;-24
2023/07/04 07:41:29;;;;;;;3.90;2.80;;;;;;;24.22;56.13;98917.95;105679;1256;74190;-24
2023/07/04 07:43:56;;;;;;;5.90;2.40;;;;;;;24.31;55.26;98917.86;105709;1258;74270;-24
2023/07/04 07:46:23;;;;;;;4.80;3.00;;;;;;;24.37;54.59;98915.64;105929;1255;72674;-25
2023/07/04 07:48:51;;;;;;;5.50;3.40;;;;;;;24.27;53.37;98916.34;105703;1253;61061;-24
2023/07/04 07:51:19;;;;;;;4.80;2.50;;;;;;;24.32;55.20;98916.25;105716;1251;61161;-24
2023/07/04 07:53:48;;;;;;;3.50;2.80;;;;;;;24.74;55.31;98912.83;105574;1254;73733;-24
2023/07/04 07:56:20;;;;;;;4.20;2.40;;;;;;;25.19;54.64;98916.92;105474;1258;74284;-22
2023/07/04 07:58:47;;;;;;;4.70;2.30;;;;;;;25.39;52.66;98917.16;105540;1253;72682;-24
2023/07/04 08:01:19;;;;;;;12.10;3.70;;;;;;;25.51;52.81;98917.75;105589;1256;60954;-24
2023/07/04 08:03:46;;;;;;;6.50;2.60;;;;;;;25.87;53.59;98924.90;105455;1258;61123;-24
2023/07/04 08:06:42;;;;;;;4.40;2.80;;;;;;;26.23;52.33;98922.67;105894;1253;73774;-24
2023/07/04 08:09:10;;;;;;;9.20;2.30;;;;;;;26.49;51.03;98923.23;105780;1257;74872;-23
2023/07/04 08:11:38;;;;;;;4.50;2.90;;;;;;;26.77;50.26;98926.61;105682;1259;72395;-23
2023/07/04 08:14:06;;;;;;;5.10;2.60;;;;;;;26.97;51.04;98926.52;105758;1253;61782;-22
2023/07/04 08:16:45;;;;;;;6.60;3.00;;;;;;;27.37;49.40;98925.02;105736;1254;61171;-23
2023/07/04 08:19:14;;;;;;;6.00;2.30;;;;;;;27.79;49.37;98925.36;105734;1254;73811;-23
2023/07/04 08:21:41;;;;;;;3.80;2.10;;;;;;;28.17;47.77;98921.23;105617;1258;72984;-23
2023/07/04 08:24:12;;;;;;;4.80;2.40;;;;;;;28.40;48.08;98921.86;105894;1252;73163;-23
2023/07/04 08:26:44;;;;;;;3.10;2.20;;;;;;;28.78;46.25;98915.44;105854;1253;61055;-25
2023/07/04 08:29:11;;;;;;;6.30;2.00;;;;;;;28.99;45.86;98920.51;105694;1253;61122;-23
2023/07/04 08:31:38;;;;;;;3.00;1.70;;;;;;;29.25;45.43;98926.91;105677;1254;73918;-23
2023/07/04 08:34:05;;;;;;;2.80;2.00;;;;;;;29.27;43.33;98925.54;105861;1254;74367;-23
2023/07/04 08:36:33;;;;;;;4.50;2.10;;;;;;;28.97;42.92;98926.00;105717;1253;72642;-23
2023/07/04 08:39:00;;;;;;;6.70;1.60;;;;;;;28.98;43.91;98931.00;105436;1253;61102;-23
2023/07/04 08:41:41;;;;;;;1.90;1.70;;;;;;;28.82;41.75;98924.20;105740;1253;61225;-23
2023/07/04 08:44:13;;;;;;;4.40;1.90;;;;;;;28.87;43.33;98923.52;105768;1253;73841;-22
2023/07/04 08:46:44;;;;;;;6.30;2.00;;;;;;;29.30;42.83;98922.47;105670;1258;74227;-23
2023/07/04 08:49:29;;;;;;;3.60;1.90;;;;;;;29.68;42.30;98920.92;105703;1253;71513;-23
2023/07/04 08:52:02;;;;;;;3.00;1.80;;;;;;;30.01;40.78;98915.70;105715;1251;61067;-23
2023/07/04 08:54:31;;;;;;;7.70;2.30;;;;;;;30.09;40.27;98919.63;105733;1254;61113;-23
2023/07/04 08:57:00;;;;;;;2.70;1.80;;;;;;;29.64;41.22;98919.88;105754;1258;75362;-23
2023/07/04 08:59:40;;;;;;;2.10;1.70;;;;;;;29.52;39.64;98918.46;105700;1253;65805;-23
2023/07/04 09:02:29;;;;;;;2.60;2.00;;;;;;;29.37;41.36;98922.12;105675;1253;72491;-23
2023/07/04 09:05:06;;;;;;;9.80;3.90;;;;;;;29.33;41.35;98919.73;105676;1253;61136;-24
2023/07/04 09:07:54;;;;;;;2.80;2.40;;;;;;;28.38;39.02;98912.96;105785;1257;61165;-24
2023/07/04 09:10:31;;;;;;;5.20;2.70;;;;;;;28.37;37.71;98914.32;105613;1253;74224;-24
2023/07/04 09:13:00;;;;;;;4.90;2.20;;;;;;;27.88;38.78;98921.08;105755;1253;74339;-24
2023/07/04 09:15:28;;;;;;;2.40;1.60;;;;;;;28.21;37.58;98922.21;105731;1253;71276;-23
2023/07/04 09:17:58;;;;;;;2.70;2.40;;;;;;;28.37;37.17;98924.33;105862;1256;61182;-23
2023/07/04 09:20:57;;;;;;;1.80;1.60;;;;;;;28.41;36.90;98919.63;105751;1258;61057;-23
2023/07/04 09:23:24;;;;;;;3.20;1.90;;;;;;;28.86;37.05;98915.30;105784;1254;72628;-24
2023/07/04 09:25:53;;;;;;;2.20;1.70;;;;;;;29.17;36.85;98913.69;105763;1253;74321;-23
2023/07/04 09:28:20;;;;;;;3.30;1.60;;;;;;;29.04;36.35;98910.00;105691;1254;73082;-23
2023/07/04 09:30:47;;;;;;;5.70;5.10;;;;;;;29.06;36.86;98907.83;105745;1253;61138;-24
2023/07/04 09:33:19;;;;;;;4.00;2.20;;;;;;;28.99;37.86;98911.23;105907;1253;61129;-23
2023/07/04 09:35:46;;;;;;;4.30;2.20;;;;;;;29.08;36.95;98910.44;105674;1259;72632;-26
2023/07/04 09:38:13;;;;;;;8.80;3.00;;;;;;;29.17;37.14;98904.37;105714;1253;74182;-24
2023/07/04 09:40:51;;;;;;;2.90;1.80;;;;;;;29.34;37.92;98906.64;105829;1254;72464;-25
2023/07/04 09:43:33;;;;;;;8.10;2.00;;;;;;;29.44;37.86;98910.07;105669;1251;61178;-25
2023/07/04 09:46:25;;;;;;;2.00;1.90;;;;;;;29.58;36.60;98904.05;105608;1257;61172;-24
2023/07/04 09:48:53;;;;;;;2.30;1.70;;;;;;;29.91;38.58;98907.83;105692;1253;73719;-24
2023/07/04 09:51:30;;;;;;;4.00;2.40;;;;;;;30.13;36.23;98904.34;105683;1253;65761;-23
2023/07/04 09:54:19;;;;;;;6.30;2.30;;;;;;;29.58;36.56;98911.88;105677;1253;71160;-24
2023/07/04 09:56:46;;;;;;;6.70;3.20;;;;;;;29.31;36.53;98910.84;105793;1252;61169;-23
2023/07/04 09:59:14;;;;;;;2.50;2.20;;;;;;;29.30;36.62;98909.28;105886;1256;61244;-23
2023/07/04 10:01:51;;;;;;;7.00;2.30;;;;;;;29.78;39.03;98905.98;105706;1253;73822;-23
2023/07/04 10:04:35;;;;;;;5.00;1.70;;;;;;;30.48;36.30;98902.16;105781;1258;72468;-23
2023/07/04 10:07:04;;;;;;;3.50;2.50;;;;;;;29.92;35.19;98905.52;105623;1261;63992;-23
2023/07/04 10:09:31;;;;;;;2.60;2.00;;;;;;;28.96;37.60;98908.77;105713;1253;61160;-23
2023/07/04 10:12:12;;;;;;;2.30;1.90;;;;;;;28.91;38.19;98906.73;105808;1258;61155;-23
2023/07/04 10:14:48;;;;;;;13.40;2.40;;;;;;;29.25;38.61;98903.86;105770;1253;73412;-24
2023/07/04 10:17:20;;;;;;;3.10;1.80;;;;;;;29.80;37.19;98903.59;105665;1259;65765;-24
2023/07/04 10:19:51;;;;;;;6.50;1.80;;;;;;;30.42;36.43;98896.33;105525;1257;72652;-24
2023/07/04 10:22:26;;;;;;;3.40;2.10;;;;;;;30.43;35.18;98897.30;105331;1252;61170;-24
2023/07/04 10:24:53;;;;;;;4.20;1.90;;;;;;;30.90;36.46;98895.85;105791;1259;61093;-24
2023/07/04 10:27:20;;;;;;;3.90;2.40;;;;;;;31.09;35.43;98901.36;105615;1253;65201;-24
2023/07/04 10:29:54;;;;;;;2.30;1.90;;;;;;;31.04;35.41;98902.14;105518;1253;65662;-24
2023/07/04 10:32:21;;;;;;;2.00;1.70;;;;;;;30.88;35.41;98896.71;105515;1257;64042;-24
2023/07/04 10:34:49;;;;;;;2.50;1.70;;;;;;;30.47;35.17;98895.59;105680;1253;61054;-24
2023/07/04 10:37:23;;;;;;;44.60;4.80;;;;;;;29.76;35.77;98904.10;105460;1258;61732;-24
2023/07/04 10:39:59;;;;;;;8.50;2.30;;;;;;;29.29;35.85;98902.84;105833;1257;73694;-24
2023/07/04 10:43:01;;;;;;;2.90;2.10;;;;;;;29.43;36.52;98898.53;105489;1260;73031;-24
2023/07/04 10:45:29;;;;;;;3.30;1.50;;;;;;;29.45;36.07;98896.64;105445;1252;72673;-24
2023/07/04 10:48:01;;;;;;;1.80;1.60;;;;;;;29.75;36.62;98899.31;105556;1253;61143;-24
2023/07/04 10:50:55;;;;;;;2.80;2.10;;;;;;;29.48;35.17;98902.11;105360;1260;61174;-24
2023/07/04 10:53:22;;;;;;;2.80;1.80;;;;;;;29.18;36.02;98902.33;105614;1254;74162;-24
2023/07/04 10:56:13;;;;;;;3.20;2.00;;;;;;;29.54;35.99;98898.80;105708;1253;74431;-24
2023/07/04 10:58:42;;;;;;;2.50;1.50;;;;;;;30.15;37.18;98890.83;105837;1253;72810;-24
2023/07/04 11:01:16;;;;;;;2.60;1.70;;;;;;;30.49;36.71;98892.98;105464;1252;60989;-25
2023/07/04 11:03:45;;;;;;;3.30;1.80;;;;;;;30.86;36.63;98891.59;105545;1254;61157;-24
2023/07/04 11:06:18;;;;;;;1.90;1.60;;;;;;;31.38;36.10;98893.91;105408;1253;65464;-24
2023/07/04 11:08:47;;;;;;;2.00;1.70;;;;;;;31.95;34.83;98892.13;105350;1262;65685;-24
2023/07/04 11:11:15;;;;;;;2.40;1.50;;;;;;;32.26;35.98;98886.82;105630;1253;63809;-24
2023/07/04 11:13:48;;;;;;;4.40;1.80;;;;;;;32.39;34.77;98886.05;105540;1253;61131;-24
2023/07/04 11:16:15;;;;;;;7.30;1.80;;;;;;;32.26;33.59;98885.89;105415;1254;61299;-24
2023/07/04 11:18:44;;;;;;;2.40;1.80;;;;;;;32.06;33.30;98881.67;105524;1253;65342;-24
2023/07/04 11:21:15;;;;;;;2.40;1.90;;;;;;;32.18;34.13;98880.05;105457;1253;64281;-24
2023/07/04 11:23:54;;;;;;;4.40;1.70;;;;;;;32.43;34.19;98877.25;105622;1253;64096;-24
2023/07/04 11:26:55;;;;;;;3.50;2.20;;;;;;;32.78;34.00;98874.11;105611;1254;61090;-24
2023/07/04 11:29:22;;;;;;;3.40;1.90;;;;;;;32.54;34.03;98871.08;105819;1253;61157;-24
2023/07/04 11:32:19;;;;;;;2.00;1.60;;;;;;;32.79;34.19;98867.86;105934;1253;65106;-24
2023/07/04 11:34:49;;;;;;;2.10;1.60;;;;;;;33.29;32.94;98865.77;105552;1254;65678;-23
2023/07/04 11:37:21;;;;;;;4.10;1.80;;;;;;;33.72;33.55;98859.19;105556;1253;64045;-24
2023/07/04 11:39:52;;;;;;;3.50;1.90;;;;;;;33.82;32.75;98850.56;105372;1253;61061;-22